KSLB/SLB METAR and TAF weather

Enter ICAO airport designator
Station Type Date Time Source
KSLB METAR 2021/09/16 22:35 UTC NOAA

KSLB 162235Z AUTO 19014G22KT 10SM CLR 30/18 A2981 RMK AO2


Station Type Date Time Source
KSLB Decoded METAR 2021/09/16 22:35 UTC NOAA

Storm Lake, IA, United States (KSLB) 42-36N 095-14W
Sep 16, 2021 - 06:35 PM EDT / 2021.09.16 2235 UTC
Wind: from the S (190 degrees) at 16 MPH (14 KT) gusting to 25 MPH (22 KT):0
Visibility: 10 mile(s):0
Sky conditions: clear
Temperature: 86 F (30 C)
Dew Point: 64 F (18 C)
Relative Humidity: 48%
Pressure (altimeter): 29.81 in. Hg (1009 hPa)
ob: KSLB 162235Z AUTO 19014G22KT 10SM CLR 30/18 A2981 RMK AO2
cycle: 22

Station Type Date Time Source
KSLB TAF UTC NOAA

Error!

Example: see airport list